Time,TemperatureF,DewpointF,PressureIn,WindDirection,WindDirectionDegrees,WindSpeedMPH,WindSpeedGustMPH,Humidity,HourlyPrecipIn,Conditions,Clouds,dailyrainin,SoftwareType,DateUTC
2013-04-17 00:04:00,46.4,39.6,30.15,ENE,74,5.0,12.0,77,0.00,RA,,0.00,WeatherDisplay:10.37,2013-04-17 05:04:00,
2013-04-17 00:09:00,46.4,39.6,30.15,ENE,71,7.0,15.0,77,0.00,OVC,,0.00,WeatherDisplay:10.37,2013-04-17 05:09:00,
2013-04-17 00:14:00,46.4,39.6,30.15,ENE,73,3.0,14.0,77,0.00,OVC,,0.00,WeatherDisplay:10.37,2013-04-17 05:14:00,
2013-04-17 00:19:00,46.4,39.6,30.15,ENE,76,6.0,11.0,77,0.00,OVC,,0.00,WeatherDisplay:10.37,2013-04-17 05:19:00,
2013-04-17 00:25:00,46.4,39.2,30.15,East,79,8.0,11.0,76,0.00,OVC,,0.00,WeatherDisplay:10.37,2013-04-17 05:25:00,
2013-04-17 00:30:00,46.4,39.2,30.15,East,80,7.0,9.0,76,0.00,OVC,,0.00,WeatherDisplay:10.37,2013-04-17 05:30:00,
2013-04-17 00:39:00,46.4,38.9,30.16,ENE,70,5.0,8.0,75,0.00,OVC,,0.00,WeatherDisplay:10.37,2013-04-17 05:39:00,
2013-04-17 00:44:00,46.4,38.6,30.16,ENE,59,6.0,11.0,74,0.00,OVC,,0.00,WeatherDisplay:10.37,2013-04-17 05:44:00,
2013-04-17 00:50:00,46.4,38.6,30.16,NE,53,9.0,11.0,74,0.00,OVC,,0.00,WeatherDisplay:10.37,2013-04-17 05:50:00,
2013-04-17 00:59:00,46.4,38.6,30.16,ENE,71,6.0,14.0,74,0.00,OVC,,0.00,WeatherDisplay:10.37,2013-04-17 05:59:00,
2013-04-17 01:04:00,46.4,38.2,30.16,ENE,67,5.0,14.0,73,0.00,OVC,,0.00,WeatherDisplay:10.37,2013-04-17 06:04:00,
2013-04-17 01:09:00,46.5,38.3,30.16,NE,55,9.0,15.0,73,0.00,OVC,,0.00,WeatherDisplay:10.37,2013-04-17 06:09:00,
2013-04-17 01:14:00,46.5,38.3,30.16,NE,55,9.0,17.0,73,0.00,OVC,,0.00,WeatherDisplay:10.37,2013-04-17 06:14:00,
2013-04-17 01:19:00,46.5,38.0,30.16,NE,53,10.0,12.0,72,0.00,OVC,,0.00,WeatherDisplay:10.37,2013-04-17 06:19:00,
2013-04-17 01:24:00,46.5,38.3,30.16,ENE,60,6.0,10.0,73,0.00,OVC,,0.00,WeatherDisplay:10.37,2013-04-17 06:24:00,
2013-04-17 01:30:00,46.5,38.3,30.16,ENE,63,7.0,14.0,73,0.00,OVC,,0.00,WeatherDisplay:10.37,2013-04-17 06:30:00,
2013-04-17 01:39:00,46.7,38.1,30.16,NE,55,8.0,11.0,72,0.00,OVC,,0.00,WeatherDisplay:10.37,2013-04-17 06:39:00,
2013-04-17 01:44:00,46.7,38.5,30.16,ENE,67,5.0,9.0,73,0.00,OVC,,0.00,WeatherDisplay:10.37,2013-04-17 06:44:00,
2013-04-17 01:49:00,46.7,38.1,30.15,ENE,69,9.0,11.0,72,0.00,OVC,,0.00,WeatherDisplay:10.37,2013-04-17 06:49:00,
2013-04-17 01:54:00,46.7,38.5,30.15,ENE,71,7.0,9.0,73,0.00,OVC,,0.00,WeatherDisplay:10.37,2013-04-17 06:54:00,
2013-04-17 01:59:00,46.7,38.9,30.16,East,82,7.0,11.0,74,0.00,OVC,,0.00,WeatherDisplay:10.37,2013-04-17 06:59:00,
2013-04-17 02:04:00,46.7,38.9,30.15,ENE,67,8.0,12.0,74,0.00,OVC,,0.00,WeatherDisplay:10.37,2013-04-17 07:04:00,
2013-04-17 02:09:00,46.7,38.9,30.16,ENE,59,1.0,6.0,74,0.00,OVC,,0.00,WeatherDisplay:10.37,2013-04-17 07:09:00,
2013-04-17 02:15:00,46.5,38.7,30.16,ENE,66,6.0,11.0,74,0.00,OVC,,0.00,WeatherDisplay:10.37,2013-04-17 07:15:00,
2013-04-17 02:24:00,46.5,39.0,30.16,ENE,70,6.0,6.0,75,0.00,OVC,,0.00,WeatherDisplay:10.37,2013-04-17 07:24:00,
2013-04-17 02:29:00,46.5,39.0,30.14,ENE,62,8.0,14.0,75,0.00,OVC,,0.00,WeatherDisplay:10.37,2013-04-17 07:29:00,
2013-04-17 02:35:00,46.4,38.9,30.15,ENE,69,1.0,17.0,75,0.00,OVC,,0.00,WeatherDisplay:10.37,2013-04-17 07:35:00,
2013-04-17 02:39:00,46.4,38.6,30.14,East,79,3.0,16.0,74,0.00,OVC,,0.00,WeatherDisplay:10.37,2013-04-17 07:39:00,
2013-04-17 02:44:00,46.4,38.9,30.13,ENE,75,6.0,11.0,75,0.00,OVC,,0.00,WeatherDisplay:10.37,2013-04-17 07:44:00,
2013-04-17 02:49:00,46.4,38.9,30.14,NE,54,8.0,11.0,75,0.00,OVC,,0.00,WeatherDisplay:10.37,2013-04-17 07:49:00,
2013-04-17 02:54:00,46.2,39.4,30.14,NE,50,5.0,9.0,77,0.05,RA,,0.05,WeatherDisplay:10.37,2013-04-17 07:54:00,
2013-04-17 02:59:00,45.7,39.6,30.14,ENE,63,5.0,14.0,79,0.00,RA,,0.08,WeatherDisplay:10.37,2013-04-17 07:59:00,
2013-04-17 03:04:00,45.4,39.6,30.15,ENE,67,1.0,6.0,80,0.00,RA,,0.08,WeatherDisplay:10.37,2013-04-17 08:04:00,
2013-04-17 03:09:00,45.2,39.7,30.15,ENE,73,2.0,5.0,81,0.00,OVC,,0.08,WeatherDisplay:10.37,2013-04-17 08:09:00,
2013-04-17 03:14:00,45.1,39.9,30.15,ENE,72,2.0,8.0,82,0.00,OVC,,0.08,WeatherDisplay:10.37,2013-04-17 08:14:00,
2013-04-17 03:19:00,45.1,39.9,30.14,ENE,67,3.0,8.0,82,0.00,OVC,,0.08,WeatherDisplay:10.37,2013-04-17 08:19:00,
2013-04-17 03:24:00,45.1,39.9,30.14,ENE,70,9.0,11.0,82,0.00,OVC,,0.08,WeatherDisplay:10.37,2013-04-17 08:24:00,
2013-04-17 03:29:00,45.2,39.7,30.15,ENE,64,6.0,8.0,81,0.00,OVC,,0.08,WeatherDisplay:10.37,2013-04-17 08:29:00,
2013-04-17 03:34:00,45.4,39.9,30.16,ENE,72,1.0,6.0,81,0.00,OVC,,0.08,WeatherDisplay:10.37,2013-04-17 08:34:00,
2013-04-17 03:39:00,45.4,39.9,30.16,ENE,76,5.0,8.0,81,0.00,OVC,,0.08,WeatherDisplay:10.37,2013-04-17 08:39:00,
2013-04-17 03:44:00,45.5,40.0,30.16,ENE,67,5.0,9.0,81,0.00,OVC,,0.08,WeatherDisplay:10.37,2013-04-17 08:44:00,
2013-04-17 03:49:00,45.5,39.7,30.16,ENE,73,8.0,9.0,80,0.00,OVC,,0.08,WeatherDisplay:10.37,2013-04-17 08:49:00,
2013-04-17 03:54:00,45.7,39.9,30.16,ENE,71,7.0,8.0,80,0.00,OVC,,0.08,WeatherDisplay:10.37,2013-04-17 08:54:00,
2013-04-17 03:59:00,45.7,39.9,30.16,ENE,68,6.0,6.0,80,0.00,OVC,,0.08,WeatherDisplay:10.37,2013-04-17 08:59:00,
2013-04-17 04:04:00,45.7,39.6,30.14,ENE,74,13.0,14.0,79,0.00,OVC,,0.08,WeatherDisplay:10.37,2013-04-17 09:04:00,
2013-04-17 04:09:00,45.8,39.7,30.13,ENE,77,13.0,24.0,79,0.00,OVC,,0.08,WeatherDisplay:10.37,2013-04-17 09:09:00,
2013-04-17 04:14:00,45.8,39.7,30.14,ENE,67,5.0,9.0,79,0.00,-RA,,0.08,WeatherDisplay:10.37,2013-04-17 09:14:00,
2013-04-17 04:19:00,45.7,39.6,30.13,NE,56,8.0,15.0,79,0.00,-RA,,0.08,WeatherDisplay:10.37,2013-04-17 09:19:00,
2013-04-17 04:24:00,45.7,39.9,30.14,NE,55,6.0,11.0,80,0.00,-RA,,0.08,WeatherDisplay:10.37,2013-04-17 09:24:00,
2013-04-17 04:29:00,45.7,39.9,30.14,ENE,71,5.0,8.0,80,0.00,-RA,,0.08,WeatherDisplay:10.37,2013-04-17 09:29:00,
2013-04-17 04:34:00,45.7,39.9,30.14,ENE,75,9.0,11.0,80,0.00,-RA,,0.08,WeatherDisplay:10.37,2013-04-17 09:34:00,
2013-04-17 04:40:00,45.8,40.0,30.14,ENE,75,6.0,17.0,80,0.00,-RA,,0.08,WeatherDisplay:10.37,2013-04-17 09:40:00,
2013-04-17 04:45:00,45.8,40.0,30.14,ENE,70,10.0,15.0,80,0.00,-RA,,0.08,WeatherDisplay:10.37,2013-04-17 09:45:00,
2013-04-17 04:54:00,45.8,39.7,30.13,ENE,71,10.0,17.0,79,0.00,OVC,,0.08,WeatherDisplay:10.37,2013-04-17 09:54:00,
2013-04-17 04:59:00,45.8,40.0,30.14,ENE,76,9.0,15.0,80,0.00,OVC,,0.08,WeatherDisplay:10.37,2013-04-17 09:59:00,
2013-04-17 05:04:00,46.0,39.9,30.14,ENE,74,6.0,18.0,79,0.00,OVC,,0.08,WeatherDisplay:10.37,2013-04-17 10:04:00,
2013-04-17 05:10:00,46.0,39.9,30.15,ENE,75,10.0,11.0,79,0.00,OVC,,0.08,WeatherDisplay:10.37,2013-04-17 10:10:00,
2013-04-17 05:14:00,46.0,39.9,30.13,ENE,73,9.0,14.0,79,0.00,-RA,,0.08,WeatherDisplay:10.37,2013-04-17 10:14:00,
2013-04-17 05:19:00,46.0,39.9,30.12,ENE,67,10.0,18.0,79,0.00,-RA,,0.08,WeatherDisplay:10.37,2013-04-17 10:19:00,
2013-04-17 05:24:00,46.0,39.9,30.12,ENE,70,9.0,15.0,79,0.00,-RA,,0.08,WeatherDisplay:10.37,2013-04-17 10:24:00,
2013-04-17 05:30:00,46.0,39.9,30.11,ENE,69,12.0,17.0,79,0.00,-RA,,0.08,WeatherDisplay:10.37,2013-04-17 10:30:00,
2013-04-17 05:34:00,46.0,39.9,30.11,ENE,66,9.0,15.0,79,0.00,OVC,,0.08,WeatherDisplay:10.37,2013-04-17 10:34:00,
2013-04-17 05:39:00,46.0,40.2,30.11,ENE,67,6.0,12.0,80,0.00,OVC,,0.08,WeatherDisplay:10.37,2013-04-17 10:39:00,
2013-04-17 05:44:00,45.8,40.0,30.11,ENE,62,3.0,12.0,80,0.00,OVC,,0.08,WeatherDisplay:10.37,2013-04-17 10:44:00,
2013-04-17 05:49:00,45.8,40.3,30.11,ENE,77,8.0,11.0,81,0.00,OVC,,0.08,WeatherDisplay:10.37,2013-04-17 10:49:00,
2013-04-17 05:54:00,45.7,40.2,30.11,East,86,10.0,15.0,81,0.00,OVC,,0.08,WeatherDisplay:10.37,2013-04-17 10:54:00,
2013-04-17 05:59:00,45.7,40.5,30.11,East,84,10.0,14.0,82,0.00,OVC,,0.08,WeatherDisplay:10.37,2013-04-17 10:59:00,
2013-04-17 06:04:00,45.7,40.5,30.11,East,83,7.0,14.0,82,0.00,OVC,,0.08,WeatherDisplay:10.37,2013-04-17 11:04:00,
2013-04-17 06:10:00,45.7,40.5,30.11,East,85,13.0,20.0,82,0.00,OVC,,0.08,WeatherDisplay:10.37,2013-04-17 11:10:00,
2013-04-17 06:19:00,46.1,40.6,30.12,East,86,7.0,21.0,81,0.00,OVC,,0.08,WeatherDisplay:10.37,2013-04-17 11:19:00,
2013-04-17 06:24:00,46.2,40.7,30.12,East,95,7.0,11.0,81,0.00,OVC,,0.08,WeatherDisplay:10.37,2013-04-17 11:24:00,
2013-04-17 06:29:00,46.4,40.9,30.11,ESE,102,2.0,8.0,81,0.00,OVC,,0.08,WeatherDisplay:10.37,2013-04-17 11:29:00,
2013-04-17 06:35:00,46.5,41.0,30.12,East,99,1.0,5.0,81,0.00,OVC,,0.08,WeatherDisplay:10.37,2013-04-17 11:35:00,
2013-04-17 06:44:00,46.8,41.0,30.12,East,90,12.0,14.0,80,0.00,OVC,,0.08,WeatherDisplay:10.37,2013-04-17 11:44:00,
2013-04-17 06:49:00,47.1,41.2,30.12,East,86,3.0,11.0,80,0.00,OVC,,0.08,WeatherDisplay:10.37,2013-04-17 11:49:00,
2013-04-17 06:54:00,47.2,41.0,30.12,East,94,7.0,9.0,79,0.00,OVC,,0.08,WeatherDisplay:10.37,2013-04-17 11:54:00,
2013-04-17 06:59:00,47.3,41.1,30.13,East,90,7.0,11.0,79,0.00,OVC,,0.08,WeatherDisplay:10.37,2013-04-17 11:59:00,
2013-04-17 07:04:00,47.4,41.2,30.11,East,91,10.0,11.0,79,0.00,OVC,,0.08,WeatherDisplay:10.37,2013-04-17 12:04:00,
2013-04-17 07:09:00,47.4,41.2,30.13,East,100,5.0,9.0,79,0.00,OVC,,0.08,WeatherDisplay:10.37,2013-04-17 12:09:00,
2013-04-17 07:14:00,47.4,41.2,30.11,East,93,15.0,15.0,79,0.00,OVC,,0.08,WeatherDisplay:10.37,2013-04-17 12:14:00,
2013-04-17 07:19:00,47.6,41.4,30.14,East,83,1.0,11.0,79,0.00,OVC,,0.08,WeatherDisplay:10.37,2013-04-17 12:19:00,
2013-04-17 07:24:00,47.7,41.5,30.13,ENE,76,5.0,8.0,79,0.00,OVC,,0.08,WeatherDisplay:10.37,2013-04-17 12:24:00,
2013-04-17 07:29:00,47.7,41.2,30.13,East,86,3.0,11.0,78,0.00,OVC,,0.08,WeatherDisplay:10.37,2013-04-17 12:29:00,
2013-04-17 07:34:00,47.7,41.2,30.13,East,92,7.0,9.0,78,0.00,OVC,,0.08,WeatherDisplay:10.37,2013-04-17 12:34:00,
2013-04-17 07:40:00,47.8,41.6,30.12,East,91,7.0,8.0,79,0.00,OVC,,0.08,WeatherDisplay:10.37,2013-04-17 12:40:00,
2013-04-17 07:49:00,47.9,41.7,30.11,ESE,110,3.0,8.0,79,0.00,OVC,,0.08,WeatherDisplay:10.37,2013-04-17 12:49:00,
2013-04-17 07:54:00,48.0,41.8,30.11,ESE,110,7.0,11.0,79,0.00,OVC,,0.08,WeatherDisplay:10.37,2013-04-17 12:54:00,
2013-04-17 07:59:00,48.0,41.8,30.11,East,94,8.0,12.0,79,0.00,OVC,,0.08,WeatherDisplay:10.37,2013-04-17 12:59:00,
2013-04-17 08:05:00,48.0,42.1,30.11,East,90,6.0,6.0,80,0.00,RA,,0.12,WeatherDisplay:10.37,2013-04-17 13:05:00,
2013-04-17 08:14:00,47.3,42.7,30.10,SE,137,3.0,8.0,84,0.00,RA,,0.14,WeatherDisplay:10.37,2013-04-17 13:14:00,
2013-04-17 08:19:00,47.1,42.8,30.10,SE,138,3.0,11.0,85,0.00,OVC,,0.14,WeatherDisplay:10.37,2013-04-17 13:19:00,
2013-04-17 08:24:00,47.1,42.8,30.09,ESE,120,6.0,8.0,85,0.00,OVC,,0.14,WeatherDisplay:10.37,2013-04-17 13:24:00,
2013-04-17 08:29:00,47.1,43.1,30.09,ESE,114,5.0,9.0,86,0.00,OVC,,0.14,WeatherDisplay:10.37,2013-04-17 13:29:00,
2013-04-17 08:34:00,47.1,43.1,30.10,SE,131,3.0,9.0,86,0.00,-RA,,0.14,WeatherDisplay:10.37,2013-04-17 13:34:00,
2013-04-17 08:39:00,47.4,43.4,30.10,SSE,153,3.0,8.0,86,0.00,-RA,,0.14,WeatherDisplay:10.37,2013-04-17 13:39:00,
2013-04-17 08:44:00,47.6,43.6,30.11,SSE,165,2.0,6.0,86,0.00,-RA,,0.14,WeatherDisplay:10.37,2013-04-17 13:44:00,
2013-04-17 08:49:00,47.7,43.7,30.11,ESE,110,2.0,6.0,86,0.00,-RA,,0.14,WeatherDisplay:10.37,2013-04-17 13:49:00,
2013-04-17 08:54:00,48.0,44.0,30.10,ENE,77,2.0,5.0,86,0.00,OVC,,0.14,WeatherDisplay:10.37,2013-04-17 13:54:00,
2013-04-17 08:59:00,48.2,44.2,30.11,East,97,5.0,6.0,86,0.00,OVC,,0.14,WeatherDisplay:10.37,2013-04-17 13:59:00,
2013-04-17 09:04:00,48.3,44.0,30.10,ESE,111,1.0,5.0,85,0.00,OVC,,0.14,WeatherDisplay:10.37,2013-04-17 14:04:00,
2013-04-17 09:09:00,48.6,44.3,30.10,East,99,9.0,12.0,85,0.00,OVC,,0.14,WeatherDisplay:10.37,2013-04-17 14:09:00,
2013-04-17 09:15:00,48.8,44.5,30.10,East,87,3.0,9.0,85,0.00,OVC,,0.14,WeatherDisplay:10.37,2013-04-17 14:15:00,
2013-04-17 09:24:00,49.4,45.1,30.09,East,100,3.0,11.0,85,0.00,OVC,,0.14,WeatherDisplay:10.37,2013-04-17 14:24:00,
2013-04-17 09:29:00,49.6,45.0,30.09,ESE,105,2.0,9.0,84,0.00,OVC,,0.14,WeatherDisplay:10.37,2013-04-17 14:29:00,
2013-04-17 09:34:00,49.8,45.2,30.08,ESE,104,3.0,9.0,84,0.00,OVC,,0.14,WeatherDisplay:10.37,2013-04-17 14:34:00,
2013-04-17 09:39:00,49.9,45.2,30.08,ESE,112,8.0,8.0,84,0.00,OVC,,0.14,WeatherDisplay:10.37,2013-04-17 14:39:00,
2013-04-17 09:44:00,49.9,45.3,30.07,SE,129,8.0,9.0,84,0.00,OVC,,0.14,WeatherDisplay:10.37,2013-04-17 14:44:00,
2013-04-17 09:49:00,50.1,45.5,30.07,SE,126,6.0,9.0,84,0.00,OVC,,0.14,WeatherDisplay:10.37,2013-04-17 14:49:00,
2013-04-17 09:55:00,50.2,45.6,30.07,SE,126,5.0,9.0,84,0.00,OVC,,0.14,WeatherDisplay:10.37,2013-04-17 14:55:00,
2013-04-17 10:04:00,50.5,45.8,30.06,SE,142,0.0,8.0,84,0.00,OVC,,0.14,WeatherDisplay:10.37,2013-04-17 15:04:00,
2013-04-17 10:09:00,50.6,46.3,30.06,SE,143,3.0,9.0,85,0.00,OVC,,0.14,WeatherDisplay:10.37,2013-04-17 15:09:00,
2013-04-17 10:15:00,50.7,46.4,30.06,SE,140,2.0,8.0,85,0.00,OVC,,0.14,WeatherDisplay:10.37,2013-04-17 15:15:00,
2013-04-17 10:24:00,51.2,46.8,30.06,SSE,148,6.0,14.0,85,0.00,OVC,,0.14,WeatherDisplay:10.37,2013-04-17 15:24:00,
2013-04-17 10:30:00,51.4,47.0,30.06,SE,146,1.0,9.0,85,0.00,OVC,,0.14,WeatherDisplay:10.37,2013-04-17 15:30:00,
2013-04-17 10:39:00,51.8,47.4,30.06,SE,128,5.0,11.0,85,0.00,OVC,,0.14,WeatherDisplay:10.37,2013-04-17 15:39:00,
2013-04-17 10:45:00,51.9,47.5,30.05,SE,138,5.0,11.0,85,0.00,OVC,,0.14,WeatherDisplay:10.37,2013-04-17 15:45:00,
2013-04-17 10:54:00,52.7,48.3,30.04,SE,124,3.0,9.0,85,0.00,OVC,,0.14,WeatherDisplay:10.37,2013-04-17 15:54:00,
2013-04-17 10:59:00,53.5,49.1,30.03,SE,137,6.0,9.0,85,0.00,OVC,,0.14,WeatherDisplay:10.37,2013-04-17 15:59:00,
2013-04-17 11:04:00,54.1,49.4,30.03,SE,136,7.0,11.0,84,0.00,OVC,,0.14,WeatherDisplay:10.37,2013-04-17 16:04:00,
2013-04-17 11:09:00,54.7,50.0,30.03,SE,128,6.0,8.0,84,0.00,OVC,,0.14,WeatherDisplay:10.37,2013-04-17 16:09:00,
2013-04-17 11:15:00,55.1,50.0,30.03,SE,125,6.0,8.0,83,0.00,OVC,,0.14,WeatherDisplay:10.37,2013-04-17 16:15:00,
2013-04-17 11:20:00,55.3,50.2,30.03,SE,139,9.0,9.0,83,0.00,OVC,,0.14,WeatherDisplay:10.37,2013-04-17 16:20:00,
2013-04-17 11:29:00,55.7,50.6,30.03,SE,141,10.0,11.0,83,0.00,OVC,,0.14,WeatherDisplay:10.37,2013-04-17 16:29:00,
2013-04-17 11:34:00,55.9,51.1,30.03,SE,135,9.0,17.0,84,0.00,SCT,,0.14,WeatherDisplay:10.37,2013-04-17 16:34:00,
2013-04-17 11:39:00,56.2,51.4,30.03,SE,132,9.0,9.0,84,0.00,SCT,,0.14,WeatherDisplay:10.37,2013-04-17 16:39:00,
2013-04-17 11:45:00,56.3,51.5,30.03,SSE,148,7.0,15.0,84,0.00,SCT,,0.14,WeatherDisplay:10.37,2013-04-17 16:45:00,
2013-04-17 11:54:00,56.9,52.5,30.02,SSE,151,6.0,9.0,85,0.00,BKN,,0.14,WeatherDisplay:10.37,2013-04-17 16:54:00,
2013-04-17 11:59:00,57.2,52.4,30.02,SSE,147,9.0,11.0,84,0.00,BKN,,0.14,WeatherDisplay:10.37,2013-04-17 16:59:00,
2013-04-17 12:04:00,57.5,53.0,30.01,SE,133,7.0,14.0,85,0.00,BKN,,0.14,WeatherDisplay:10.37,2013-04-17 17:04:00,
2013-04-17 12:09:00,57.8,53.3,30.01,SE,124,10.0,11.0,85,0.00,BKN,,0.14,WeatherDisplay:10.37,2013-04-17 17:09:00,
2013-04-17 12:14:00,58.0,53.2,30.01,SE,130,7.0,14.0,84,0.00,OVC,,0.14,WeatherDisplay:10.37,2013-04-17 17:14:00,
2013-04-17 12:19:00,58.3,53.5,30.01,SE,146,14.0,17.0,84,0.00,OVC,,0.14,WeatherDisplay:10.37,2013-04-17 17:19:00,
2013-04-17 12:24:00,58.5,53.7,30.01,SE,144,8.0,17.0,84,0.00,OVC,,0.14,WeatherDisplay:10.37,2013-04-17 17:24:00,
2013-04-17 12:29:00,58.7,53.9,30.00,SE,133,7.0,9.0,84,0.00,OVC,,0.14,WeatherDisplay:10.37,2013-04-17 17:29:00,
2013-04-17 12:34:00,58.9,54.1,30.00,SE,139,7.0,11.0,84,0.00,OVC,,0.14,WeatherDisplay:10.37,2013-04-17 17:34:00,
2013-04-17 12:40:00,59.2,54.4,30.00,SSE,148,10.0,15.0,84,0.00,OVC,,0.14,WeatherDisplay:10.37,2013-04-17 17:40:00,
2013-04-17 12:49:00,59.6,54.8,29.99,SE,138,9.0,11.0,84,0.00,OVC,,0.14,WeatherDisplay:10.37,2013-04-17 17:49:00,
2013-04-17 12:54:00,59.9,55.1,29.99,SSE,148,10.0,15.0,84,0.00,OVC,,0.14,WeatherDisplay:10.37,2013-04-17 17:54:00,
2013-04-17 13:00:00,60.1,54.9,29.98,SE,141,10.0,11.0,83,0.00,OVC,,0.14,WeatherDisplay:10.37,2013-04-17 18:00:00,
2013-04-17 13:09:00,60.8,55.6,29.98,SE,140,7.0,14.0,83,0.00,OVC,,0.14,WeatherDisplay:10.37,2013-04-17 18:09:00,
2013-04-17 13:14:00,61.2,56.0,29.97,SSE,147,8.0,9.0,83,0.00,OVC,,0.14,WeatherDisplay:10.37,2013-04-17 18:14:00,
2013-04-17 13:19:00,61.6,56.0,29.97,SE,145,8.0,11.0,82,0.00,OVC,,0.14,WeatherDisplay:10.37,2013-04-17 18:19:00,
2013-04-17 13:24:00,61.8,56.2,29.97,SE,140,7.0,9.0,82,0.00,OVC,,0.14,WeatherDisplay:10.37,2013-04-17 18:24:00,
2013-04-17 13:29:00,62.1,56.5,29.96,SE,141,7.0,9.0,82,0.00,OVC,,0.14,WeatherDisplay:10.37,2013-04-17 18:29:00,
2013-04-17 13:34:00,62.3,57.1,29.96,SSE,147,5.0,8.0,83,0.00,OVC,,0.14,WeatherDisplay:10.37,2013-04-17 18:34:00,
2013-04-17 13:40:00,62.6,57.0,29.96,SE,144,7.0,9.0,82,0.00,OVC,,0.14,WeatherDisplay:10.37,2013-04-17 18:40:00,
2013-04-17 13:49:00,63.0,57.4,29.96,SE,142,7.0,14.0,82,0.00,OVC,,0.14,WeatherDisplay:10.37,2013-04-17 18:49:00,
2013-04-17 13:54:00,63.2,57.6,29.96,SE,141,8.0,9.0,82,0.00,OVC,,0.14,WeatherDisplay:10.37,2013-04-17 18:54:00,
2013-04-17 14:00:00,63.4,57.8,29.95,SSE,149,6.0,11.0,82,0.00,OVC,,0.14,WeatherDisplay:10.37,2013-04-17 19:00:00,
2013-04-17 14:09:00,63.9,58.3,29.95,SSE,152,8.0,17.0,82,0.00,OVC,,0.14,WeatherDisplay:10.37,2013-04-17 19:09:00,
2013-04-17 14:14:00,64.3,58.7,29.94,South,170,6.0,14.0,82,0.00,OVC,,0.14,WeatherDisplay:10.37,2013-04-17 19:14:00,
2013-04-17 14:19:00,64.7,59.1,29.93,SSE,167,5.0,6.0,82,0.00,OVC,,0.14,WeatherDisplay:10.37,2013-04-17 19:19:00,
2013-04-17 14:25:00,65.0,59.0,29.93,SSE,151,14.0,18.0,81,0.00,OVC,,0.14,WeatherDisplay:10.37,2013-04-17 19:25:00,
2013-04-17 14:34:00,65.3,59.3,29.93,SE,145,12.0,14.0,81,0.00,OVC,,0.14,WeatherDisplay:10.37,2013-04-17 19:34:00,
2013-04-17 14:39:00,65.3,59.3,29.93,SSE,149,7.0,15.0,81,0.00,OVC,,0.14,WeatherDisplay:10.37,2013-04-17 19:39:00,
2013-04-17 14:44:00,65.5,59.5,29.92,SSE,147,8.0,11.0,81,0.00,OVC,,0.14,WeatherDisplay:10.37,2013-04-17 19:44:00,
2013-04-17 14:49:00,65.8,59.8,29.91,SE,138,7.0,10.0,81,0.00,OVC,,0.14,WeatherDisplay:10.37,2013-04-17 19:49:00,
2013-04-17 14:55:00,66.1,60.1,29.91,SE,142,8.0,11.0,81,0.00,OVC,,0.14,WeatherDisplay:10.37,2013-04-17 19:55:00,
2013-04-17 15:04:00,66.9,60.5,29.89,SSE,147,12.0,15.0,80,0.00,OVC,,0.14,WeatherDisplay:10.37,2013-04-17 20:04:00,
2013-04-17 15:09:00,67.1,60.7,29.89,SE,137,10.0,14.0,80,0.00,OVC,,0.14,WeatherDisplay:10.37,2013-04-17 20:09:00,
2013-04-17 15:15:00,67.6,61.2,29.89,SE,140,7.0,11.0,80,0.00,OVC,,0.14,WeatherDisplay:10.37,2013-04-17 20:15:00,
2013-04-17 15:24:00,68.2,61.4,29.88,SSE,148,8.0,11.0,79,0.00,OVC,,0.14,WeatherDisplay:10.37,2013-04-17 20:24:00,
2013-04-17 15:30:00,68.4,61.6,29.86,SE,145,7.0,11.0,79,0.00,OVC,,0.14,WeatherDisplay:10.37,2013-04-17 20:30:00,
2013-04-17 15:39:00,69.3,62.5,29.87,SSE,153,7.0,12.0,79,0.00,OVC,,0.14,WeatherDisplay:10.37,2013-04-17 20:39:00,
2013-04-17 15:44:00,69.8,62.6,29.86,SSE,168,5.0,11.0,78,0.00,OVC,,0.14,WeatherDisplay:10.37,2013-04-17 20:44:00,
2013-04-17 15:49:00,70.1,62.9,29.86,SSE,158,6.0,8.0,78,0.00,OVC,,0.14,WeatherDisplay:10.37,2013-04-17 20:49:00,
2013-04-17 15:54:00,70.4,63.2,29.86,SSE,149,9.0,14.0,78,0.00,OVC,,0.14,WeatherDisplay:10.37,2013-04-17 20:54:00,
2013-04-17 15:59:00,70.8,63.2,29.85,SE,146,9.0,11.0,77,0.00,OVC,,0.14,WeatherDisplay:10.37,2013-04-17 20:59:00,
2013-04-17 16:04:00,70.9,63.3,29.85,SSE,148,10.0,11.0,77,0.00,OVC,,0.14,WeatherDisplay:10.37,2013-04-17 21:04:00,
2013-04-17 16:09:00,71.1,63.5,29.85,SSE,147,7.0,15.0,77,0.00,OVC,,0.14,WeatherDisplay:10.37,2013-04-17 21:09:00,
2013-04-17 16:14:00,71.2,63.6,29.86,SE,145,6.0,6.0,77,0.00,BKN,,0.14,WeatherDisplay:10.37,2013-04-17 21:14:00,
2013-04-17 16:20:00,71.6,64.0,29.86,SSE,157,8.0,8.0,77,0.00,BKN,,0.14,WeatherDisplay:10.37,2013-04-17 21:20:00,
2013-04-17 16:24:00,72.1,64.5,29.85,SSE,163,7.0,12.0,77,0.00,BKN,,0.14,WeatherDisplay:10.37,2013-04-17 21:24:00,
2013-04-17 16:29:00,72.5,64.5,29.85,South,169,7.0,11.0,76,0.00,BKN,,0.14,WeatherDisplay:10.37,2013-04-17 21:29:00,
2013-04-17 16:34:00,73.0,65.0,29.86,South,180,3.0,8.0,76,0.00,SCT,,0.14,WeatherDisplay:10.37,2013-04-17 21:34:00,
2013-04-17 16:39:00,73.2,64.8,29.86,South,179,1.0,6.0,75,0.00,SCT,,0.14,WeatherDisplay:10.37,2013-04-17 21:39:00,
2013-04-17 16:44:00,73.3,64.9,29.86,SSE,152,6.0,8.0,75,0.00,SCT,,0.14,WeatherDisplay:10.37,2013-04-17 21:44:00,
2013-04-17 16:49:00,73.3,64.5,29.86,SSE,150,5.0,8.0,74,0.00,SCT,,0.14,WeatherDisplay:10.37,2013-04-17 21:49:00,
2013-04-17 16:54:00,73.2,64.8,29.86,SSE,156,3.0,8.0,75,0.00,CLR,,0.14,WeatherDisplay:10.37,2013-04-17 21:54:00,
2013-04-17 17:00:00,73.3,64.9,29.86,SSE,157,1.0,5.0,75,0.00,CLR,,0.14,WeatherDisplay:10.37,2013-04-17 22:00:00,
2013-04-17 17:09:00,73.7,64.9,29.85,SSE,158,3.0,6.0,74,0.00,CLR,,0.14,WeatherDisplay:10.37,2013-04-17 22:09:00,
2013-04-17 17:14:00,73.5,64.7,29.85,SSE,150,1.0,8.0,74,0.00,CLR,,0.14,WeatherDisplay:10.37,2013-04-17 22:14:00,
2013-04-17 17:19:00,73.3,64.9,29.84,SSE,160,6.0,9.0,75,0.00,CLR,,0.14,WeatherDisplay:10.37,2013-04-17 22:19:00,
2013-04-17 17:24:00,73.0,64.6,29.84,SSE,161,0.0,6.0,75,0.00,CLR,,0.14,WeatherDisplay:10.37,2013-04-17 22:24:00,
2013-04-17 17:29:00,72.8,64.4,29.83,SSE,155,5.0,5.0,75,0.00,CLR,,0.14,WeatherDisplay:10.37,2013-04-17 22:29:00,
2013-04-17 17:34:00,72.7,64.7,29.83,SSE,154,2.0,6.0,76,0.00,CLR,,0.14,WeatherDisplay:10.37,2013-04-17 22:34:00,
2013-04-17 17:39:00,72.7,64.7,29.83,SSE,153,1.0,6.0,76,0.00,CLR,,0.14,WeatherDisplay:10.37,2013-04-17 22:39:00,
2013-04-17 17:44:00,72.7,64.7,29.83,SSE,153,1.0,3.0,76,0.00,CLR,,0.14,WeatherDisplay:10.37,2013-04-17 22:44:00,
2013-04-17 17:50:00,72.7,65.1,29.83,SSE,153,0.0,2.0,77,0.00,CLR,,0.14,WeatherDisplay:10.37,2013-04-17 22:50:00,
2013-04-17 17:59:00,72.8,64.8,29.83,SE,146,5.0,5.0,76,0.00,CLR,,0.14,WeatherDisplay:10.37,2013-04-17 22:59:00,
2013-04-17 18:04:00,72.7,64.7,29.83,SE,140,6.0,8.0,76,0.00,CLR,,0.14,WeatherDisplay:10.37,2013-04-17 23:04:00,
2013-04-17 18:09:00,72.5,64.9,29.82,SE,129,3.0,6.0,77,0.00,CLR,,0.14,WeatherDisplay:10.37,2013-04-17 23:09:00,
2013-04-17 18:15:00,72.7,65.4,29.82,ESE,121,1.0,3.0,78,0.00,CLR,,0.14,WeatherDisplay:10.37,2013-04-17 23:15:00,
2013-04-17 18:20:00,72.3,65.4,29.81,SE,128,0.0,2.0,79,0.00,CLR,,0.14,WeatherDisplay:10.37,2013-04-17 23:20:00,
2013-04-17 18:29:00,72.0,65.5,29.82,NW,313,8.0,8.0,80,0.00,CLR,,0.14,WeatherDisplay:10.37,2013-04-17 23:29:00,
2013-04-17 18:34:00,68.8,59.8,29.84,NNW,338,23.0,29.0,73,0.01,RA,,0.15,WeatherDisplay:10.37,2013-04-17 23:34:00,
2013-04-17 18:39:00,64.0,57.7,29.83,NNW,346,13.0,27.0,80,0.01,RA,,0.15,WeatherDisplay:10.37,2013-04-17 23:39:00,
2013-04-17 18:44:00,62.6,57.7,29.83,NNW,343,16.0,18.0,84,0.00,SCT,,0.15,WeatherDisplay:10.37,2013-04-17 23:44:00,
2013-04-17 18:49:00,61.2,55.7,29.84,NNW,330,33.0,36.0,82,0.00,SCT,,0.15,WeatherDisplay:10.37,2013-04-17 23:49:00,
2013-04-17 18:54:00,58.5,53.7,29.82,NNW,334,18.0,29.0,84,0.00,SCT,,0.15,WeatherDisplay:10.37,2013-04-17 23:54:00,
2013-04-17 18:59:00,57.6,53.8,29.82,NNW,346,26.0,27.0,87,0.04,RA,,0.21,WeatherDisplay:10.37,2013-04-17 23:59:00,
2013-04-17 19:05:00,57.2,53.7,29.84,NNW,345,15.0,27.0,88,0.03,RA,,0.35,WeatherDisplay:10.37,2013-04-18 00:05:00,
2013-04-17 19:14:00,55.9,53.1,29.83,NNW,334,22.0,30.0,90,0.10, +RA,,0.45,WeatherDisplay:10.37,2013-04-18 00:14:00,
2013-04-17 19:19:00,55.4,52.5,29.85,NW,320,2.0,17.0,90,0.05, +RA,,0.45,WeatherDisplay:10.37,2013-04-18 00:19:00,
2013-04-17 19:24:00,55.3,52.4,29.84,NNW,336,9.0,14.0,90,0.00, +RA,,0.45,WeatherDisplay:10.37,2013-04-18 00:24:00,
2013-04-17 19:29:00,55.0,52.1,29.83,North,11,10.0,20.0,90,0.00, +RA,,0.45,WeatherDisplay:10.37,2013-04-18 00:29:00,
2013-04-17 19:34:00,54.7,52.1,29.83,NNE,13,5.0,15.0,91,0.00,OVC,,0.45,WeatherDisplay:10.37,2013-04-18 00:34:00,
2013-04-17 19:40:00,54.5,51.9,29.83,NNE,23,8.0,12.0,91,0.00,OVC,,0.45,WeatherDisplay:10.37,2013-04-18 00:40:00,
2013-04-17 19:49:00,53.8,51.2,29.85,NNE,14,10.0,12.0,91,0.00,OVC,,0.45,WeatherDisplay:10.37,2013-04-18 00:49:00,
2013-04-17 19:54:00,53.6,51.0,29.86,NE,44,8.0,15.0,91,0.00, +RA,,0.45,WeatherDisplay:10.37,2013-04-18 00:54:00,
2013-04-17 19:59:00,53.2,50.6,29.86,ENE,62,13.0,18.0,91,0.00, +RA,,0.45,WeatherDisplay:10.37,2013-04-18 00:59:00,
2013-04-17 20:04:00,52.9,50.3,29.86,ENE,62,12.0,17.0,91,0.00, +RA,,0.45,WeatherDisplay:10.37,2013-04-18 01:04:00,
2013-04-17 20:09:00,52.8,50.2,29.86,ENE,64,12.0,21.0,91,0.00, +RA,,0.45,WeatherDisplay:10.37,2013-04-18 01:09:00,
2013-04-17 20:14:00,52.9,50.6,29.86,NE,56,7.0,17.0,92,0.00,BKN,,0.45,WeatherDisplay:10.37,2013-04-18 01:14:00,
2013-04-17 20:19:00,53.1,50.8,29.86,NNE,29,7.0,9.0,92,0.00,BKN,,0.45,WeatherDisplay:10.37,2013-04-18 01:19:00,
2013-04-17 20:29:00,53.8,51.8,29.84,North,6,9.0,14.0,93,0.00,BKN,,0.45,WeatherDisplay:10.37,2013-04-18 01:29:00,
2013-04-17 20:34:00,53.9,51.9,29.84,NNE,15,1.0,6.0,93,0.00,OVC,,0.45,WeatherDisplay:10.37,2013-04-18 01:34:00,
2013-04-17 20:39:00,54.2,52.2,29.85,NE,40,1.0,6.0,93,0.00,OVC,,0.45,WeatherDisplay:10.37,2013-04-18 01:39:00,
2013-04-17 20:44:00,54.4,52.4,29.83,NE,48,2.0,5.0,93,0.00,OVC,,0.45,WeatherDisplay:10.37,2013-04-18 01:44:00,
2013-04-17 20:49:00,54.5,52.5,29.83,NE,55,5.0,6.0,93,0.00,OVC,,0.45,WeatherDisplay:10.37,2013-04-18 01:49:00,
2013-04-17 20:54:00,54.5,52.5,29.82,ENE,70,2.0,5.0,93,0.00,SCT,,0.45,WeatherDisplay:10.37,2013-04-18 01:54:00,
2013-04-17 20:59:00,54.7,52.7,29.81,ENE,73,1.0,5.0,93,0.00,SCT,,0.45,WeatherDisplay:10.37,2013-04-18 01:59:00,
2013-04-17 21:04:00,54.7,52.7,29.81,ENE,61,3.0,9.0,93,0.00,SCT,,0.45,WeatherDisplay:10.37,2013-04-18 02:04:00,
2013-04-17 21:09:00,55.0,53.0,29.81,ENE,59,2.0,6.0,93,0.00,SCT,,0.45,WeatherDisplay:10.37,2013-04-18 02:09:00,
2013-04-17 21:14:00,55.1,53.1,29.81,ENE,57,0.0,3.0,93,0.00,SCT,,0.45,WeatherDisplay:10.37,2013-04-18 02:14:00,
2013-04-17 21:19:00,55.3,53.3,29.81,ENE,59,2.0,6.0,93,0.00,SCT,,0.45,WeatherDisplay:10.37,2013-04-18 02:19:00,
2013-04-17 21:24:00,55.5,53.5,29.81,ENE,62,2.0,6.0,93,0.00,SCT,,0.45,WeatherDisplay:10.37,2013-04-18 02:24:00,
2013-04-17 21:29:00,55.7,53.7,29.81,NE,48,2.0,6.0,93,0.00,SCT,,0.45,WeatherDisplay:10.37,2013-04-18 02:29:00,
2013-04-17 21:34:00,55.9,53.9,29.81,NNE,29,8.0,8.0,93,0.00, +RA,,0.45,WeatherDisplay:10.37,2013-04-18 02:34:00,
2013-04-17 21:39:00,55.9,53.9,29.82,NE,35,7.0,9.0,93,0.00, +RA,,0.45,WeatherDisplay:10.37,2013-04-18 02:39:00,
2013-04-17 21:44:00,55.9,53.9,29.81,NE,39,5.0,8.0,93,0.00, +RA,,0.45,WeatherDisplay:10.37,2013-04-18 02:44:00,
2013-04-17 21:49:00,55.7,53.7,29.81,NE,44,7.0,11.0,93,0.00, +RA,,0.45,WeatherDisplay:10.37,2013-04-18 02:49:00,
2013-04-17 21:54:00,55.6,53.6,29.81,ENE,61,7.0,7.0,93,0.00, +RA,,0.45,WeatherDisplay:10.37,2013-04-18 02:54:00,
2013-04-17 21:59:00,55.4,53.4,29.80,ENE,73,6.0,8.0,93,0.00, +RA,,0.45,WeatherDisplay:10.37,2013-04-18 02:59:00,
2013-04-17 22:04:00,55.4,53.4,29.79,ENE,75,2.0,5.0,93,0.00, +RA,,0.45,WeatherDisplay:10.37,2013-04-18 03:04:00,
2013-04-17 22:09:00,55.3,53.3,29.79,ENE,77,1.0,5.0,93,0.00, +RA,,0.45,WeatherDisplay:10.37,2013-04-18 03:09:00,
2013-04-17 22:14:00,55.3,53.3,29.78,ENE,77,2.0,3.0,93,0.00, +RA,,0.45,WeatherDisplay:10.37,2013-04-18 03:14:00,
2013-04-17 22:19:00,55.3,53.3,29.78,ENE,77,0.0,2.0,93,0.00, +RA,,0.45,WeatherDisplay:10.37,2013-04-18 03:19:00,
2013-04-17 22:24:00,55.3,53.3,29.78,ENE,77,0.0,2.0,93,0.00, +RA,,0.45,WeatherDisplay:10.37,2013-04-18 03:24:00,
2013-04-17 22:29:00,55.1,53.1,29.77,ENE,77,0.0,0.0,93,0.00, +RA,,0.45,WeatherDisplay:10.37,2013-04-18 03:29:00,
2013-04-17 22:34:00,55.1,53.1,29.77,ENE,77,0.0,0.0,93,0.00, +RA,,0.45,WeatherDisplay:10.37,2013-04-18 03:34:00,
2013-04-17 22:39:00,55.1,53.1,29.76,ENE,77,0.0,0.0,93,0.00, +RA,,0.45,WeatherDisplay:10.37,2013-04-18 03:39:00,
2013-04-17 22:44:00,55.1,53.1,29.76,ENE,77,0.0,0.0,93,0.00, +RA,,0.45,WeatherDisplay:10.37,2013-04-18 03:44:00,
2013-04-17 22:49:00,55.3,53.3,29.76,ENE,77,0.0,0.0,93,0.00, +RA,,0.45,WeatherDisplay:10.37,2013-04-18 03:49:00,
2013-04-17 22:54:00,55.4,53.4,29.76,ENE,77,0.0,0.0,93,0.00, +RA,,0.45,WeatherDisplay:10.37,2013-04-18 03:54:00,
2013-04-17 23:04:00,55.7,53.7,29.75,ENE,77,0.0,0.0,93,0.00, +RA,,0.45,WeatherDisplay:10.37,2013-04-18 04:04:00,
2013-04-17 23:09:00,56.0,54.3,29.75,ENE,77,0.0,0.0,94,0.00, +RA,,0.45,WeatherDisplay:10.37,2013-04-18 04:09:00,
2013-04-17 23:14:00,56.4,54.7,29.75,ENE,77,0.0,0.0,94,0.00, +RA,,0.45,WeatherDisplay:10.37,2013-04-18 04:14:00,
2013-04-17 23:19:00,57.1,55.4,29.74,ENE,77,1.0,2.0,94,0.00, +RA,,0.45,WeatherDisplay:10.37,2013-04-18 04:19:00,
2013-04-17 23:24:00,57.6,55.9,29.74,ENE,77,0.0,3.0,94,0.00, +RA,,0.45,WeatherDisplay:10.37,2013-04-18 04:24:00,
2013-04-17 23:29:00,58.0,56.3,29.74,ENE,77,1.0,3.0,94,0.00, +RA,,0.45,WeatherDisplay:10.37,2013-04-18 04:29:00,
2013-04-17 23:34:00,58.1,56.4,29.73,ENE,77,2.0,3.0,94,0.00, +RA,,0.45,WeatherDisplay:10.37,2013-04-18 04:34:00,
2013-04-17 23:40:00,58.3,56.6,29.72,ENE,77,2.0,3.0,94,0.00, +RA,,0.45,WeatherDisplay:10.37,2013-04-18 04:40:00,
2013-04-17 23:49:00,58.6,56.9,29.72,SE,136,0.0,2.0,94,0.00, +RA,,0.45,WeatherDisplay:10.37,2013-04-18 04:49:00,
2013-04-17 23:54:00,59.0,57.5,29.71,SE,136,1.0,3.0,95,0.00, +RA,,0.45,WeatherDisplay:10.37,2013-04-18 04:54:00,
2013-04-17 23:59:00,59.7,58.3,29.71,SE,135,1.0,5.0,95,0.00, +RA,,0.00,WeatherDisplay:10.37,2013-04-18 04:59:00,